Latest Weather Observations for Hindmarsh Island

IDS60801

Issued at 2:31 pm CST Thursday 28 May 2020 (issued every 10 minutes, with the page automatically refreshed every 10 minutes)

About weather observations | Map of weather stations | Latest weather observations for SA | Other Formats
Station Details ID: 023894 Name: HINDMARSH ISLAND AWS Lat: -35.52 Lon: 138.82 Height: 11.0 m
Data from the previous 72 hours. | See also: Recent months at Hindmarsh Island
Date/Time
CST
Temp
°C
App
Temp
°C
Dew
Point
°C
Rel
Hum
%
Delta-T
°C
Wind Press
QNH
hPa
Press
MSL
hPa
Rain since
9am
mm
Dir  Spd
km/h
Gust
km/h
Spd
kts
Gust
kts
28/02:30pm 16.6 12.8 7.5 55 4.5 WNW 17 24 9 13 1022.1 1022.1 0.0
28/02:00pm 16.5 12.4 7.7 56 4.4 WNW 19 24 10 13 1022.0 1022.0 0.0
28/01:30pm 16.9 12.9 8.3 57 4.4 WNW 19 26 10 14 1022.0 1022.0 0.0
28/01:00pm 16.9 13.4 8.8 59 4.2 WNW 17 20 9 11 1022.3 1022.3 0.0
28/12:30pm 16.2 13.1 8.9 62 3.7 WNW 15 22 8 12 1022.6 1022.6 0.0
28/12:00pm 15.9 13.0 9.6 66 3.3 WNW 15 20 8 11 1022.9 1022.9 0.0
28/11:30am 15.2 12.0 10.0 71 2.7 NW 17 24 9 13 1023.1 1023.1 0.0
28/11:00am 15.3 13.1 10.9 75 2.3 WNW 13 17 7 9 1023.2 1023.2 0.0
28/10:30am 14.2 11.9 10.6 79 1.9 NW 13 20 7 11 1023.3 1023.3 0.0
28/10:00am 14.4 12.8 11.4 82 1.6 N 11 15 6 8 1023.2 1023.2 0.0
28/09:30am 14.3 12.9 10.9 80 1.8 NNW 9 13 5 7 1023.0 1023.0 0.0
28/09:00am 13.5 12.0 10.7 83 1.5 NW 9 13 5 7 1022.8 1022.8 0.0
28/08:30am 12.8 11.2 10.3 85 1.3 NNW 9 13 5 7 1022.5 1022.5 0.0
28/08:00am 10.9 9.5 8.7 86 1.1 NW 6 11 3 6 1022.2 1022.2 0.0
28/07:30am 10.9 8.5 8.7 86 1.1 NW 11 13 6 7 1021.8 1021.8 0.0
28/07:00am 11.4 9.5 9.1 86 1.1 WNW 9 11 5 6 1021.4 1021.4 0.0
28/06:30am 11.3 9.4 9.2 87 1.0 NNW 9 11 5 6 1021.2 1021.2 0.0
28/06:00am 11.1 9.8 9.9 92 0.6 N 7 9 4 5 1021.0 1021.0 0.0
28/05:30am 10.1 8.1 8.5 90 0.8 N 9 11 5 6 1020.9 1020.9 0.0
28/05:00am 10.4 9.7 8.5 88 0.9 W 2 6 1 3 1020.7 1020.7 0.0
28/04:30am 11.0 9.5 9.1 88 0.9 W 7 7 4 4 1020.6 1020.6 0.0
28/04:00am 9.1 8.0 6.9 86 1.0 NE 2 11 1 6 1020.6 1020.6 0.0
28/03:30am 10.6 8.9 8.2 85 1.2 NNW 7 11 4 6 1020.5 1020.5 0.0
28/03:00am 11.4 9.9 9.1 86 1.1 NNW 7 11 4 6 1020.3 1020.3 0.0
28/02:30am 11.7 10.0 9.8 88 1.0 NW 9 13 5 7 1020.3 1020.3 0.0
28/02:00am 10.9 8.2 9.0 88 0.9 NNW 13 15 7 8 1020.3 1020.3 0.0
28/01:30am 10.6 8.6 8.5 87 1.0 N 9 13 5 7 1020.3 1020.3 0.0
28/01:00am 11.1 9.2 9.0 87 1.0 NW 9 9 5 5 1020.3 1020.3 0.0
28/12:30am 10.7 9.2 8.5 86 1.1 NW 6 7 3 4 1020.3 1020.3 0.0
28/12:00am 10.9 8.9 8.7 86 1.1 NNW 9 13 5 7 1020.4 1020.4 0.0
 
Date/Time
CST
Temp
°C
App
Temp
°C
Dew
Point
°C
Rel
Hum
%
Delta-T
°C
Wind Press
QNH
hPa
Press
MSL
hPa
Rain since
9am
mm
Dir  Spd
km/h
Gust
km/h
Spd
kts
Gust
kts
27/11:30pm 11.0 8.3 8.8 86 1.1 NNW 13 15 7 8 1020.3 1020.3 0.0
27/11:00pm 11.0 8.3 8.9 87 1.0 NNW 13 15 7 8 1020.1 1020.1 0.0
27/10:30pm 10.9 9.3 8.7 86 1.1 WNW 7 9 4 5 1020.0 1020.0 0.0
27/10:00pm 11.2 8.8 8.8 85 1.2 WNW 11 11 6 6 1020.0 1020.0 0.0
27/09:30pm 11.4 9.0 8.8 84 1.3 W 11 11 6 6 1019.9 1019.9 0.0
27/09:00pm 12.0 10.1 9.2 83 1.4 NW 9 9 5 5 1019.8 1019.8 0.0
27/08:30pm 12.3 10.6 9.7 84 1.3 NNW 9 13 5 7 1019.7 1019.7 0.0
27/08:00pm 11.9 10.0 9.1 83 1.4 N 9 11 5 6 1019.7 1019.7 0.0
27/07:30pm 12.3 10.8 9.3 82 1.5 NNW 7 11 4 6 1019.5 1019.5 0.0
27/07:00pm 12.9 10.8 9.7 81 1.6 NNW 11 15 6 8 1019.3 1019.3 0.0
27/06:30pm 13.1 10.5 9.5 79 1.8 NW 13 15 7 8 1019.0 1019.0 0.0
27/06:00pm 13.5 11.1 9.9 79 1.8 NW 13 17 7 9 1018.8 1018.8 0.0
27/05:30pm 14.1 12.1 10.3 78 2.0 WNW 11 15 6 8 1018.5 1018.5 0.0
27/05:00pm 14.8 11.7 10.4 75 2.3 NW 17 20 9 11 1018.2 1018.2 0.0
27/04:30pm 15.4 12.4 10.6 73 2.5 WNW 17 24 9 13 1018.0 1018.0 0.0
27/04:00pm 15.5 12.6 10.9 74 2.4 WNW 17 22 9 12 1017.8 1017.8 0.0
27/03:30pm 15.4 11.9 11.0 75 2.3 NW 20 28 11 15 1017.6 1017.6 0.0
27/03:00pm 16.0 12.6 10.7 71 2.8 NW 19 24 10 13 1017.6 1017.6 0.0
27/02:30pm 15.9 12.5 10.4 70 2.9 NW 19 26 10 14 1017.4 1017.4 0.0
27/02:00pm 16.2 11.9 10.7 70 2.9 NNW 24 32 13 17 1017.5 1017.5 0.0
27/01:30pm 16.3 12.3 10.6 69 3.0 NW 22 32 12 17 1017.6 1017.6 0.0
27/01:00pm 15.2 11.2 10.6 74 2.4 NW 22 33 12 18 1017.9 1017.9 0.0
27/12:30pm 15.8 10.9 10.1 69 3.0 NW 26 35 14 19 1018.1 1018.1 0.0
27/12:00pm 15.4 10.5 10.0 70 2.8 NW 26 35 14 19 1018.4 1018.4 0.0
27/11:30am 15.8 11.0 10.3 70 2.9 NW 26 39 14 21 1018.5 1018.5 0.0
27/11:00am 15.6 10.3 9.9 69 3.0 NW 28 35 15 19 1018.9 1018.9 0.0
27/10:30am 15.1 10.1 9.5 69 2.9 NW 26 35 14 19 1019.2 1019.2 0.0
27/10:00am 14.9 9.4 9.1 68 3.0 NW 28 39 15 21 1018.9 1018.9 0.0
27/09:30am 15.1 9.3 9.5 69 2.9 NW 30 41 16 22 1018.7 1018.7 0.0
27/09:00am 14.7 11.3 9.3 70 2.8 NNW 17 24 9 13 1018.7 1018.7 0.0
27/08:30am 13.1 8.1 8.0 71 2.5 NNW 24 33 13 18 1018.4 1018.4 0.0
27/08:00am 12.5 7.3 7.4 71 2.5 NNW 24 32 13 17 1018.2 1018.2 0.0
27/07:30am 12.2 7.3 7.1 71 2.4 NNW 22 30 12 16 1017.9 1017.9 0.0
27/07:00am 12.0 7.0 6.3 68 2.7 NNW 22 28 12 15 1017.6 1017.6 0.0
27/06:30am 12.0 7.5 5.9 66 2.8 NNW 19 28 10 15 1017.5 1017.5 0.0
27/06:00am 12.3 7.5 5.5 63 3.2 NW 20 30 11 16 1017.3 1017.3 0.0
27/05:30am 12.2 7.4 4.9 61 3.3 NNW 19 28 10 15 1017.2 1017.2 0.0
27/05:00am 12.7 7.3 4.7 58 3.7 NNW 22 30 12 16 1016.7 1016.7 0.0
27/04:30am 12.8 8.1 5.0 59 3.6 N 19 26 10 14 1016.6 1016.6 0.0
27/04:00am 13.3 7.6 5.0 57 3.8 NNW 24 43 13 23 1016.7 1016.7 0.0
27/03:56am 13.4 6.9 4.8 56 4.0 NNW 28 46 15 25 1016.7 1016.7 0.0
27/03:30am 13.5 7.1 5.4 58 3.8 NNW 28 37 15 20 1016.6 1016.6 0.0
27/03:00am 13.2 8.5 6.1 62 3.4 NNW 20 28 11 15 1016.8 1016.8 0.0
27/02:30am 13.1 8.2 6.7 65 3.1 N 22 33 12 18 1016.8 1016.8 0.0
27/02:00am 13.3 8.1 5.7 60 3.6 N 22 32 12 17 1017.0 1017.0 0.0
27/01:30am 13.8 8.2 5.2 56 4.0 NNW 24 43 13 23 1016.8 1016.8 0.0
27/01:00am 13.7 8.7 3.8 51 4.5 NNW 19 26 10 14 1017.1 1017.1 0.0
27/12:30am 14.0 8.5 4.0 51 4.6 N 22 30 12 16 1017.0 1017.0 0.0
27/12:00am 13.3 8.3 4.5 55 4.0 N 20 28 11 15 1017.2 1017.2 0.0
 
Date/Time
CST
Temp
°C
App
Temp
°C
Dew
Point
°C
Rel
Hum
%
Delta-T
°C
Wind Press
QNH
hPa
Press
MSL
hPa
Rain since
9am
mm
Dir  Spd
km/h
Gust
km/h
Spd
kts
Gust
kts
26/11:30pm 12.8 9.1 4.5 57 3.8 N 13 17 7 9 1017.7 1017.7 0.0
26/11:00pm 12.8 9.2 4.8 58 3.7 N 13 17 7 9 1017.8 1017.8 0.0
26/10:30pm 12.8 8.8 5.0 59 3.6 N 15 19 8 10 1017.5 1017.5 0.0
26/10:00pm 12.6 8.0 5.5 62 3.3 NNE 19 24 10 13 1017.6 1017.6 0.0
26/09:30pm 12.5 8.3 5.9 64 3.1 N 17 20 9 11 1017.7 1017.7 0.0
26/09:00pm 12.5 8.0 5.9 64 3.1 N 19 24 10 13 1017.7 1017.7 0.0
26/08:30pm 13.0 7.8 5.7 61 3.4 N 22 30 12 16 1017.6 1017.6 0.0
26/08:00pm 13.3 8.1 5.7 60 3.6 NNE 22 30 12 16 1017.1 1017.1 0.0
26/07:30pm 13.3 8.6 5.9 61 3.5 N 20 26 11 14 1017.2 1017.2 0.0
26/07:00pm 13.3 9.2 6.2 62 3.4 N 17 24 9 13 1017.0 1017.0 0.0
26/06:30pm 13.6 9.5 6.0 60 3.6 N 17 26 9 14 1016.8 1016.8 0.0
26/06:00pm 13.1 8.7 6.5 64 3.2 NNE 19 24 10 13 1016.1 1016.1 0.0
26/05:30pm 12.8 8.8 6.6 66 3.0 NNE 17 22 9 12 1015.9 1015.9 0.0
26/05:00pm 13.0 8.6 6.4 64 3.1 NNE 19 22 10 12 1016.1 1016.1 0.0
26/04:30pm 13.6 8.5 6.0 60 3.6 NE 22 28 12 15 1015.8 1015.8 0.0
26/04:00pm 14.5 9.2 5.0 53 4.4 NNE 22 28 12 15 1016.1 1016.1 0.0
26/03:30pm 14.7 9.4 5.0 52 4.5 NNE 22 32 12 17 1016.0 1016.0 0.0
26/03:00pm 15.0 10.1 5.0 51 4.7 NNE 20 28 11 15 1016.0 1016.0 0.0
26/02:30pm 15.0 10.3 5.0 51 4.7 N 19 24 10 13 1016.4 1016.4 0.0
26/02:00pm 15.3 10.2 4.1 47 5.2 N 20 32 11 17 1016.4 1016.4 0.0
26/01:30pm 15.9 10.8 4.0 45 5.5 N 20 30 11 16 1016.5 1016.5 0.0
26/01:00pm 16.9 11.8 3.9 42 6.1 N 20 32 11 17 1016.7 1016.7 0.0
26/12:30pm 15.8 11.4 4.8 48 5.2 NNW 17 28 9 15 1017.8 1017.8 0.0
26/12:00pm 15.7 11.9 5.6 51 4.8 N 15 22 8 12 1018.5 1018.5 0.0
26/11:30am 15.2 10.6 5.4 52 4.6 N 19 32 10 17 1018.8 1018.8 0.0
26/11:00am 13.3 9.5 7.5 68 2.8 NNE 17 20 9 11 1019.4 1019.4 0.0
26/10:30am 13.2 8.7 6.8 65 3.1 NNE 20 28 11 15 1019.8 1019.8 0.0
26/10:00am 11.9 7.1 7.2 73 2.3 NE 22 28 12 15 1019.8 1019.8 0.0
26/09:30am 10.6 5.9 6.0 73 2.1 NNE 20 28 11 15 1019.9 1019.9 0.0
26/09:00am 9.4 3.8 5.4 76 1.8 NNE 24 32 13 17 1019.9 1019.9 0.0
26/08:30am 8.5 3.3 5.3 80 1.4 NE 22 32 12 17 1019.9 1019.9 0.0
26/08:00am 7.2 1.4 4.2 81 1.3 NE 24 32 13 17 1020.0 1020.0 0.0
26/07:30am 7.0 1.5 4.1 82 1.2 NE 22 28 12 15 1020.3 1020.3 0.0
26/07:00am 5.9 0.7 3.6 85 1.0 NE 20 24 11 13 1020.1 1020.1 0.0
26/06:30am 6.3 1.8 4.0 85 1.0 NNE 17 20 9 11 1020.4 1020.4 0.0
26/06:00am 6.0 1.1 4.0 87 0.8 NE 19 22 10 12 1020.1 1020.1 0.0
26/05:30am 6.2 1.3 4.0 86 0.9 NNE 19 20 10 11 1020.1 1020.1 0.0
26/05:00am 6.5 2.0 4.2 85 1.0 NNE 17 20 9 11 1020.4 1020.4 0.0
26/04:30am 6.0 1.8 3.7 85 1.0 NE 15 17 8 9 1020.4 1020.4 0.0
26/04:00am 6.4 2.6 4.1 85 1.0 NNE 13 15 7 8 1021.1 1021.1 0.0
26/03:30am 6.4 2.2 3.9 84 1.1 NNE 15 17 8 9 1020.9 1020.9 0.0
26/03:00am 7.1 3.5 4.8 85 1.0 N 13 15 7 8 1021.1 1021.1 0.0
26/02:30am 7.4 3.8 4.9 84 1.1 NNE 13 13 7 7 1021.0 1021.0 0.0
26/02:00am 7.5 3.1 4.8 83 1.2 NNE 17 19 9 10 1021.2 1021.2 0.0
26/01:30am 6.9 2.4 4.0 82 1.2 NE 17 19 9 10 1021.3 1021.3 0.0
26/01:00am 7.4 4.0 4.0 79 1.5 NNE 11 13 6 7 1022.1 1022.1 0.0
26/12:30am 8.4 5.1 4.6 77 1.7 N 11 13 6 7 1022.4 1022.4 0.0
26/12:00am 8.8 4.1 5.2 78 1.6 N 19 22 10 12 1022.5 1022.5 0.0
 
Date/Time
CST
Temp
°C
App
Temp
°C
Dew
Point
°C
Rel
Hum
%
Delta-T
°C
Wind Press
QNH
hPa
Press
MSL
hPa
Rain since
9am
mm
Dir  Spd
km/h
Gust
km/h
Spd
kts
Gust
kts
25/11:30pm 8.9 4.0 5.1 77 1.7 N 20 28 11 15 1021.5 1021.5 0.0
25/11:00pm 9.0 3.8 5.4 78 1.6 N 22 28 12 15 1021.5 1021.5 0.0
25/10:30pm 9.1 4.2 5.3 77 1.7 N 20 28 11 15 1021.2 1021.2 0.0
25/10:00pm 9.2 4.4 5.8 79 1.6 NNE 20 28 11 15 1020.9 1020.9 0.0
25/09:30pm 9.2 4.1 5.8 79 1.5 NNE 22 28 12 15 1021.3 1021.3 0.0
25/09:00pm 9.3 5.1 5.7 78 1.6 NNE 17 26 9 14 1021.9 1021.9 0.0
25/08:30pm 8.7 4.0 5.3 79 1.5 NE 19 24 10 13 1021.6 1021.6 0.0
25/08:00pm 9.0 4.4 5.6 79 1.5 NE 19 22 10 12 1021.8 1021.8 0.0
25/07:30pm 10.0 6.2 5.8 75 1.9 N 15 20 8 11 1022.3 1022.3 0.0
25/07:00pm 10.1 5.7 6.6 79 1.6 NE 19 22 10 12 1022.1 1022.1 0.0
25/06:30pm 9.7 5.6 6.1 78 1.7 NE 17 19 9 10 1022.1 1022.1 0.0
25/06:00pm 9.6 5.1 6.0 78 1.6 ENE 19 22 10 12 1021.7 1021.7 0.0
25/05:30pm 9.5 5.3 5.5 76 1.8 ENE 17 20 9 11 1021.9 1021.9 0.0
25/05:00pm 10.2 6.0 5.8 74 2.0 ENE 17 20 9 11 1022.0 1022.0 0.0
25/04:30pm 11.0 6.9 6.0 71 2.3 ENE 17 22 9 12 1022.4 1022.4 0.0
25/04:00pm 11.8 7.6 5.9 67 2.8 E 17 20 9 11 1022.9 1022.9 0.0
25/03:30pm 12.5 7.7 5.7 63 3.2 E 20 24 11 13 1023.1 1023.1 0.0
25/03:00pm 13.4 9.7 6.5 63 3.3 E 15 17 8 9 1023.0 1023.0 0.0

Other formats

Comma delimited format used in spreadsheet applications
http://www.bom.gov.au/fwo/IDS60801/IDS60801.94677.axf

JavaScript Object Notation format (JSON) in row-major order
http://www.bom.gov.au/fwo/IDS60801/IDS60801.94677.json

Data quality

Most of these data are generated automatically and are frequently updated. Quality checks on data are not normally performed. It is possible for incorrect values to appear. Refer to information at About Latest Weather Observations and please check the disclaimer before using these data.